createdAt,value
2023-03-14T00:00:34.000Z,282.27
2023-03-14T00:02:40.000Z,282.34
2023-03-14T00:04:07.000Z,282.46
2023-03-14T00:06:13.000Z,282.46
2023-03-14T00:09:04.000Z,282.4
2023-03-14T00:10:31.000Z,282.4
2023-03-14T00:12:37.000Z,282.52
2023-03-14T00:14:03.000Z,282.52
2023-03-14T00:16:10.000Z,282.52
2023-03-14T00:17:36.000Z,282.59
2023-03-14T00:19:42.000Z,282.52
2023-03-14T00:21:09.000Z,282.52
2023-03-14T00:23:15.000Z,282.52
2023-03-14T00:24:41.000Z,282.59
2023-03-14T00:26:48.000Z,282.52
2023-03-14T00:28:14.000Z,282.59
2023-03-14T00:30:20.000Z,282.59
2023-03-14T00:31:47.000Z,282.59
2023-03-14T00:33:53.000Z,282.59
2023-03-14T00:35:19.000Z,282.59
2023-03-14T00:37:25.000Z,282.59
2023-03-14T00:38:52.000Z,282.59
2023-03-14T00:40:58.000Z,282.52
2023-03-14T00:42:25.000Z,282.52
2023-03-14T00:44:31.000Z,282.52
2023-03-14T00:47:22.000Z,282.59
2023-03-14T00:48:48.000Z,282.59
2023-03-14T00:50:54.000Z,282.59
2023-03-14T00:52:21.000Z,282.59
2023-03-14T00:54:27.000Z,282.59
2023-03-14T00:55:54.000Z,282.52
2023-03-14T00:58:00.000Z,282.59
2023-03-14T00:59:26.000Z,282.52
2023-03-14T01:01:32.000Z,282.52
2023-03-14T01:02:59.000Z,282.52
2023-03-14T01:05:05.000Z,282.52
2023-03-14T01:06:32.000Z,282.52
2023-03-14T01:08:38.000Z,282.46
2023-03-14T01:10:04.000Z,282.46
2023-03-14T01:12:11.000Z,282.52
2023-03-14T01:13:37.000Z,282.59
2023-03-14T01:15:43.000Z,282.52
2023-03-14T01:17:10.000Z,282.46
2023-03-14T01:19:16.000Z,282.52
2023-03-14T01:20:42.000Z,282.59
2023-03-14T01:22:49.000Z,282.52
2023-03-14T01:25:40.000Z,282.46
2023-03-14T01:27:06.000Z,282.46
2023-03-14T01:29:12.000Z,282.4
2023-03-14T01:30:39.000Z,282.4
2023-03-14T01:32:45.000Z,282.46
2023-03-14T01:34:12.000Z,282.46
2023-03-14T01:36:18.000Z,282.4
2023-03-14T01:37:44.000Z,282.4
2023-03-14T01:39:51.000Z,282.4
2023-03-14T01:41:17.000Z,282.4
2023-03-14T01:43:23.000Z,282.4
2023-03-14T01:44:50.000Z,282.34
2023-03-14T01:46:56.000Z,282.34
2023-03-14T01:48:22.000Z,282.34
2023-03-14T01:50:28.000Z,282.27
2023-03-14T01:51:55.000Z,282.34
2023-03-14T01:54:01.000Z,282.4
2023-03-14T01:55:28.000Z,282.34
2023-03-14T01:57:34.000Z,282.34
2023-03-14T01:59:00.000Z,282.27
2023-03-14T02:01:06.000Z,282.27
2023-03-14T02:03:58.000Z,282.27
2023-03-14T02:05:24.000Z,282.21
2023-03-14T02:07:30.000Z,282.27
2023-03-14T02:08:57.000Z,282.34
2023-03-14T02:11:03.000Z,282.34
2023-03-14T02:12:29.000Z,282.34
2023-03-14T02:14:35.000Z,282.27
2023-03-14T02:16:02.000Z,282.27
2023-03-14T02:18:08.000Z,282.34
2023-03-14T02:19:35.000Z,282.34
2023-03-14T02:21:41.000Z,282.46
2023-03-14T02:23:07.000Z,282.4
2023-03-14T02:25:13.000Z,282.27
2023-03-14T02:26:40.000Z,282.34
2023-03-14T02:28:46.000Z,282.34
2023-03-14T02:30:13.000Z,282.34
2023-03-14T02:32:19.000Z,282.27
2023-03-14T02:33:45.000Z,282.27
2023-03-14T02:35:51.000Z,282.21
2023-03-14T02:37:18.000Z,282.21
2023-03-14T02:39:24.000Z,282.27
2023-03-14T02:42:16.000Z,282.27
2023-03-14T02:43:42.000Z,282.21
2023-03-14T02:45:48.000Z,282.27
2023-03-14T02:47:15.000Z,282.34
2023-03-14T02:49:21.000Z,282.27
2023-03-14T02:50:48.000Z,282.21
2023-03-14T02:52:54.000Z,282.27
2023-03-14T02:54:20.000Z,282.34
2023-03-14T02:56:26.000Z,282.4
2023-03-14T02:57:53.000Z,282.46
2023-03-14T02:59:59.000Z,282.34
2023-03-14T03:01:26.000Z,282.34
2023-03-14T03:03:32.000Z,282.34
2023-03-14T03:04:58.000Z,282.34
2023-03-14T03:07:05.000Z,282.27
2023-03-14T03:08:31.000Z,282.34
2023-03-14T03:10:37.000Z,282.34
2023-03-14T03:12:04.000Z,282.34
2023-03-14T03:14:10.000Z,282.34
2023-03-14T03:15:36.000Z,282.34
2023-03-14T03:17:43.000Z,282.27
2023-03-14T03:20:33.000Z,282.34
2023-03-14T03:22:00.000Z,282.34
2023-03-14T03:24:06.000Z,282.21
2023-03-14T03:25:33.000Z,282.15
2023-03-14T03:27:39.000Z,282.15
2023-03-14T03:29:05.000Z,282.09
2023-03-14T03:31:11.000Z,282.09
2023-03-14T03:32:38.000Z,282.02
2023-03-14T03:34:44.000Z,282.02
2023-03-14T03:36:11.000Z,282.02
2023-03-14T03:38:17.000Z,282.02
2023-03-14T03:39:43.000Z,282.02
2023-03-14T03:41:49.000Z,282.02
2023-03-14T03:43:16.000Z,282.09
2023-03-14T03:45:22.000Z,282.02
2023-03-14T03:46:49.000Z,282.02
2023-03-14T03:48:55.000Z,281.96
2023-03-14T03:50:21.000Z,281.96
2023-03-14T03:52:27.000Z,281.96
2023-03-14T03:53:54.000Z,281.96
2023-03-14T03:56:00.000Z,282.02
2023-03-14T03:58:51.000Z,282.02
2023-03-14T04:00:18.000Z,282.02
2023-03-14T04:02:24.000Z,282.02
2023-03-14T04:03:51.000Z,282.09
2023-03-14T04:05:57.000Z,282.02
2023-03-14T04:07:24.000Z,282.09
2023-03-14T04:09:30.000Z,282.02
2023-03-14T04:10:56.000Z,282.02
2023-03-14T04:13:02.000Z,282.02
2023-03-14T04:14:29.000Z,282.02
2023-03-14T04:16:35.000Z,281.96
2023-03-14T04:18:01.000Z,281.96
2023-03-14T04:20:07.000Z,281.96
2023-03-14T04:21:34.000Z,281.96
2023-03-14T04:23:40.000Z,281.96
2023-03-14T04:25:07.000Z,282.02
2023-03-14T04:27:13.000Z,282.02
2023-03-14T04:28:39.000Z,282.02
2023-03-14T04:30:45.000Z,281.9
2023-03-14T04:32:12.000Z,281.9
2023-03-14T04:34:18.000Z,281.9
2023-03-14T04:37:09.000Z,281.96
2023-03-14T04:38:36.000Z,281.96
2023-03-14T04:40:42.000Z,281.84
2023-03-14T04:42:08.000Z,281.9
2023-03-14T04:44:14.000Z,281.9
2023-03-14T04:45:41.000Z,281.9
2023-03-14T04:47:47.000Z,281.96
2023-03-14T04:49:13.000Z,281.96
2023-03-14T04:51:19.000Z,281.96
2023-03-14T04:52:46.000Z,281.96
2023-03-14T04:54:52.000Z,281.96
2023-03-14T04:56:19.000Z,281.9
2023-03-14T04:58:25.000Z,281.9
2023-03-14T04:59:51.000Z,281.9
2023-03-14T05:01:57.000Z,281.84
2023-03-14T05:03:24.000Z,281.84
2023-03-14T05:05:30.000Z,281.84
2023-03-14T05:06:56.000Z,281.96
2023-03-14T05:09:02.000Z,281.9
2023-03-14T05:10:29.000Z,281.84
2023-03-14T05:12:35.000Z,281.9
2023-03-14T05:15:26.000Z,281.9
2023-03-14T05:16:53.000Z,281.9
2023-03-14T05:18:59.000Z,281.84
2023-03-14T05:20:25.000Z,281.84
2023-03-14T05:22:31.000Z,281.84
2023-03-14T05:23:58.000Z,281.84
2023-03-14T05:26:04.000Z,281.84
2023-03-14T05:27:30.000Z,281.84
2023-03-14T05:29:37.000Z,281.9
2023-03-14T05:31:03.000Z,281.9
2023-03-14T05:33:09.000Z,281.84
2023-03-14T05:34:36.000Z,281.84
2023-03-14T05:36:42.000Z,281.77
2023-03-14T05:38:08.000Z,281.77
2023-03-14T05:40:14.000Z,281.77
2023-03-14T05:41:41.000Z,281.71
2023-03-14T05:43:47.000Z,281.71
2023-03-14T05:45:14.000Z,281.71
2023-03-14T05:47:20.000Z,281.65
2023-03-14T05:48:46.000Z,281.65
2023-03-14T05:50:52.000Z,281.59
2023-03-14T05:53:43.000Z,281.52
2023-03-14T05:55:10.000Z,281.59
2023-03-14T05:57:16.000Z,281.52
2023-03-14T05:58:43.000Z,281.52
2023-03-14T06:00:49.000Z,281.65
2023-03-14T06:02:15.000Z,281.59
2023-03-14T06:04:21.000Z,281.59
2023-03-14T06:05:48.000Z,281.59
2023-03-14T06:07:54.000Z,281.59
2023-03-14T06:09:21.000Z,281.59
2023-03-14T06:11:27.000Z,281.59
2023-03-14T06:12:53.000Z,281.59
2023-03-14T06:14:59.000Z,281.59
2023-03-14T06:16:26.000Z,281.59
2023-03-14T06:18:32.000Z,281.52
2023-03-14T06:19:59.000Z,281.52
2023-03-14T06:22:05.000Z,281.52
2023-03-14T06:23:31.000Z,281.52
2023-03-14T06:25:38.000Z,281.52
2023-03-14T06:27:04.000Z,281.52
2023-03-14T06:29:10.000Z,281.46
2023-03-14T06:32:01.000Z,281.46
2023-03-14T06:33:28.000Z,281.46
2023-03-14T06:35:34.000Z,281.46
2023-03-14T06:37:01.000Z,281.46
2023-03-14T06:39:07.000Z,281.46
2023-03-14T06:40:33.000Z,281.52
2023-03-14T06:42:39.000Z,281.52
2023-03-14T06:44:06.000Z,281.59
2023-03-14T06:46:12.000Z,281.65
2023-03-14T06:47:39.000Z,281.71
2023-03-14T06:49:45.000Z,281.71
2023-03-14T06:51:11.000Z,281.65
2023-03-14T06:53:18.000Z,281.65
2023-03-14T06:54:44.000Z,281.71
2023-03-14T06:56:50.000Z,281.65
2023-03-14T06:58:17.000Z,281.65
2023-03-14T07:00:23.000Z,281.65
2023-03-14T07:01:50.000Z,281.65
2023-03-14T07:03:56.000Z,281.59
2023-03-14T07:05:23.000Z,281.65
2023-03-14T07:07:29.000Z,281.65
2023-03-14T07:10:20.000Z,281.65
2023-03-14T07:11:46.000Z,281.65
2023-03-14T07:13:52.000Z,281.65
2023-03-14T07:15:19.000Z,281.71
2023-03-14T07:17:25.000Z,281.71
2023-03-14T07:18:52.000Z,281.71
2023-03-14T07:20:58.000Z,281.65
2023-03-14T07:22:24.000Z,281.65
2023-03-14T07:24:30.000Z,281.59
2023-03-14T07:25:57.000Z,281.59
2023-03-14T07:28:03.000Z,281.59
2023-03-14T07:29:30.000Z,281.59
2023-03-14T07:31:36.000Z,281.65
2023-03-14T07:33:02.000Z,281.65
2023-03-14T07:35:08.000Z,281.59
2023-03-14T07:36:35.000Z,281.59
2023-03-14T07:38:41.000Z,281.59
2023-03-14T07:40:08.000Z,281.59
2023-03-14T07:42:14.000Z,281.65
2023-03-14T07:43:40.000Z,281.65
2023-03-14T07:45:47.000Z,281.65
2023-03-14T07:48:40.000Z,281.65
2023-03-14T07:50:07.000Z,281.65
2023-03-14T07:52:13.000Z,281.71
2023-03-14T07:53:39.000Z,281.65
2023-03-14T07:55:45.000Z,281.65
2023-03-14T07:57:12.000Z,281.65
2023-03-14T07:59:18.000Z,281.71
2023-03-14T08:00:45.000Z,281.71
2023-03-14T08:02:51.000Z,281.77
2023-03-14T08:04:17.000Z,281.84
2023-03-14T08:06:24.000Z,281.84
2023-03-14T08:07:50.000Z,281.9
2023-03-14T08:09:56.000Z,281.9
2023-03-14T08:11:23.000Z,281.96
2023-03-14T08:13:29.000Z,281.96
2023-03-14T08:14:55.000Z,281.96
2023-03-14T08:17:02.000Z,281.96
2023-03-14T08:18:28.000Z,282.02
2023-03-14T08:20:34.000Z,282.02
2023-03-14T08:22:01.000Z,282.02
2023-03-14T08:24:07.000Z,282.09
2023-03-14T08:26:58.000Z,282.02
2023-03-14T08:28:24.000Z,282.09
2023-03-14T08:30:30.000Z,282.15
2023-03-14T08:31:57.000Z,282.15
2023-03-14T08:34:03.000Z,282.21
2023-03-14T08:35:30.000Z,282.21
2023-03-14T08:37:36.000Z,282.21
2023-03-14T08:39:02.000Z,282.27
2023-03-14T08:41:09.000Z,282.27
2023-03-14T08:42:35.000Z,282.27
2023-03-14T08:44:41.000Z,282.34
2023-03-14T08:46:08.000Z,282.27
2023-03-14T08:48:14.000Z,282.34
2023-03-14T08:49:41.000Z,282.4
2023-03-14T08:51:47.000Z,282.34
2023-03-14T08:53:13.000Z,282.4
2023-03-14T08:55:19.000Z,282.34
2023-03-14T08:56:46.000Z,282.34
2023-03-14T08:58:52.000Z,282.34
2023-03-14T09:00:19.000Z,282.34
2023-03-14T09:02:25.000Z,282.34
2023-03-14T09:05:16.000Z,282.4
2023-03-14T09:06:43.000Z,282.34
2023-03-14T09:08:49.000Z,282.15
2023-03-14T09:10:15.000Z,282.15
2023-03-14T09:12:21.000Z,282.15
2023-03-14T09:13:48.000Z,282.15
2023-03-14T09:15:54.000Z,282.27
2023-03-14T09:17:20.000Z,282.21
2023-03-14T09:19:27.000Z,282.27
2023-03-14T09:20:53.000Z,282.27
2023-03-14T09:22:59.000Z,282.34
2023-03-14T09:24:26.000Z,282.4
2023-03-14T09:26:32.000Z,282.4
2023-03-14T09:27:58.000Z,282.27
2023-03-14T09:30:05.000Z,282.27
2023-03-14T09:31:31.000Z,282.27
2023-03-14T09:33:37.000Z,282.34
2023-03-14T09:35:04.000Z,282.34
2023-03-14T09:37:10.000Z,282.4
2023-03-14T09:38:36.000Z,282.4
2023-03-14T09:40:42.000Z,282.46
2023-03-14T09:43:34.000Z,282.4
2023-03-14T09:45:00.000Z,282.46
2023-03-14T09:47:06.000Z,282.46
2023-03-14T09:48:33.000Z,282.46
2023-03-14T09:50:39.000Z,282.46
2023-03-14T09:52:05.000Z,282.52
2023-03-14T09:54:11.000Z,282.52
2023-03-14T09:55:38.000Z,282.59
2023-03-14T09:57:44.000Z,282.59
2023-03-14T09:59:11.000Z,282.52
2023-03-14T10:01:17.000Z,282.52
2023-03-14T10:02:43.000Z,282.65
2023-03-14T10:04:50.000Z,282.65
2023-03-14T10:06:16.000Z,282.59
2023-03-14T10:08:22.000Z,282.52
2023-03-14T10:09:49.000Z,282.65
2023-03-14T10:11:55.000Z,282.65
2023-03-14T10:13:21.000Z,282.71
2023-03-14T10:15:27.000Z,282.65
2023-03-14T10:16:54.000Z,282.65
2023-03-14T10:19:00.000Z,282.65
2023-03-14T10:21:51.000Z,282.77
2023-03-14T10:23:18.000Z,282.71
2023-03-14T10:25:24.000Z,282.71
2023-03-14T10:26:51.000Z,282.71
2023-03-14T10:28:57.000Z,282.71
2023-03-14T10:30:23.000Z,282.77
2023-03-14T10:32:29.000Z,282.84
2023-03-14T10:33:56.000Z,282.9
2023-03-14T10:36:02.000Z,282.84
2023-03-14T10:37:29.000Z,282.9
2023-03-14T10:39:35.000Z,282.96
2023-03-14T10:41:01.000Z,283.09
2023-03-14T10:43:07.000Z,283.27
2023-03-14T10:44:34.000Z,283.27
2023-03-14T10:46:40.000Z,283.27
2023-03-14T10:48:07.000Z,283.46
2023-03-14T10:50:13.000Z,283.59
2023-03-14T10:51:39.000Z,283.52
2023-03-14T10:53:45.000Z,283.46
2023-03-14T10:55:12.000Z,283.34
2023-03-14T10:57:18.000Z,283.4
2023-03-14T11:00:09.000Z,283.34
2023-03-14T11:01:36.000Z,283.34
2023-03-14T11:03:42.000Z,283.27
2023-03-14T11:05:09.000Z,283.27
2023-03-14T11:07:15.000Z,283.34
2023-03-14T11:08:41.000Z,283.4
2023-03-14T11:10:47.000Z,283.34
2023-03-14T11:12:14.000Z,283.27
2023-03-14T11:14:20.000Z,283.4
2023-03-14T11:15:49.000Z,283.46
2023-03-14T11:17:55.000Z,283.52
2023-03-14T11:19:22.000Z,283.59
2023-03-14T11:21:28.000Z,283.71
2023-03-14T11:22:55.000Z,283.84
2023-03-14T11:25:01.000Z,283.77
2023-03-14T11:26:28.000Z,283.59
2023-03-14T11:28:34.000Z,283.52
2023-03-14T11:30:00.000Z,283.52
2023-03-14T11:32:06.000Z,283.46
2023-03-14T11:33:33.000Z,283.52
2023-03-14T11:35:39.000Z,283.52
2023-03-14T11:38:30.000Z,283.46
2023-03-14T11:39:57.000Z,283.34
2023-03-14T11:42:03.000Z,283.34
2023-03-14T11:43:30.000Z,283.34
2023-03-14T11:45:36.000Z,283.27
2023-03-14T11:47:03.000Z,283.27
2023-03-14T11:49:09.000Z,283.21
2023-03-14T11:50:35.000Z,283.27
2023-03-14T11:52:41.000Z,283.27
2023-03-14T11:54:09.000Z,283.27
2023-03-14T11:56:15.000Z,283.15
2023-03-14T11:57:42.000Z,283.15
2023-03-14T11:59:48.000Z,283.09
2023-03-14T12:01:15.000Z,283.09
2023-03-14T12:03:21.000Z,283.15
2023-03-14T12:04:48.000Z,283.27
2023-03-14T12:06:54.000Z,283.15
2023-03-14T12:08:20.000Z,283.21
2023-03-14T12:10:26.000Z,283.15
2023-03-14T12:11:53.000Z,283.15
2023-03-14T12:13:59.000Z,283.09
2023-03-14T12:16:50.000Z,283.21
2023-03-14T12:18:17.000Z,283.15
2023-03-14T12:20:23.000Z,283.02
2023-03-14T12:21:50.000Z,283.02
2023-03-14T12:23:56.000Z,283.02
2023-03-14T12:25:23.000Z,282.9
2023-03-14T12:27:29.000Z,282.84
2023-03-14T12:28:55.000Z,282.84
2023-03-14T12:31:01.000Z,282.77
2023-03-14T12:32:28.000Z,282.77
2023-03-14T12:34:34.000Z,282.77
2023-03-14T12:36:01.000Z,282.77
2023-03-14T12:38:07.000Z,282.77
2023-03-14T12:39:33.000Z,282.77
2023-03-14T12:41:40.000Z,282.71
2023-03-14T12:43:06.000Z,282.65
2023-03-14T12:45:12.000Z,282.59
2023-03-14T12:46:39.000Z,282.46
2023-03-14T12:48:45.000Z,282.27
2023-03-14T12:50:11.000Z,282.27
2023-03-14T12:52:17.000Z,281.96
2023-03-14T12:55:08.000Z,281.77
2023-03-14T12:56:35.000Z,281.71
2023-03-14T12:58:41.000Z,281.59
2023-03-14T13:00:09.000Z,281.59
2023-03-14T13:02:16.000Z,281.52
2023-03-14T13:03:42.000Z,281.46
2023-03-14T13:05:48.000Z,281.46
2023-03-14T13:07:15.000Z,281.46
2023-03-14T13:09:21.000Z,281.34
2023-03-14T13:10:47.000Z,281.4
2023-03-14T13:12:53.000Z,281.4
2023-03-14T13:14:20.000Z,281.4
2023-03-14T13:16:26.000Z,281.27
2023-03-14T13:17:53.000Z,281.21
2023-03-14T13:19:59.000Z,281.09
2023-03-14T13:21:25.000Z,281.02
2023-03-14T13:23:32.000Z,280.84
2023-03-14T13:24:58.000Z,280.84
2023-03-14T13:27:04.000Z,280.71
2023-03-14T13:28:31.000Z,280.65
2023-03-14T13:30:37.000Z,280.59
2023-03-14T13:33:28.000Z,280.46
2023-03-14T13:34:55.000Z,280.4
2023-03-14T13:37:01.000Z,280.34
2023-03-14T13:38:27.000Z,280.34
2023-03-14T13:40:34.000Z,280.4
2023-03-14T13:42:00.000Z,280.46
2023-03-14T13:44:06.000Z,280.4
2023-03-14T13:45:33.000Z,280.4
2023-03-14T13:47:39.000Z,280.34
2023-03-14T13:49:05.000Z,280.4
2023-03-14T13:51:11.000Z,280.46
2023-03-14T13:52:38.000Z,280.4
2023-03-14T13:54:44.000Z,280.4
2023-03-14T13:56:11.000Z,280.46
2023-03-14T13:58:17.000Z,280.46
2023-03-14T13:59:43.000Z,280.46
2023-03-14T14:01:49.000Z,280.46
2023-03-14T14:03:16.000Z,280.46
2023-03-14T14:05:22.000Z,280.4
2023-03-14T14:06:49.000Z,280.34
2023-03-14T14:08:56.000Z,280.34
2023-03-14T14:11:48.000Z,280.21
2023-03-14T14:13:36.000Z,280.15
2023-03-14T14:15:42.000Z,280.15
2023-03-14T14:17:08.000Z,280.09
2023-03-14T14:19:14.000Z,280.15
2023-03-14T14:20:41.000Z,280.21
2023-03-14T14:22:50.000Z,280.15
2023-03-14T14:24:17.000Z,280.15
2023-03-14T14:26:23.000Z,280.02
2023-03-14T14:27:49.000Z,280.02
2023-03-14T14:29:55.000Z,280.09
2023-03-14T14:31:22.000Z,280.09
2023-03-14T14:33:28.000Z,280.02
2023-03-14T14:34:55.000Z,279.9
2023-03-14T14:37:01.000Z,279.9
2023-03-14T14:38:27.000Z,279.77
2023-03-14T14:40:34.000Z,279.59
2023-03-14T14:42:00.000Z,279.52
2023-03-14T14:44:06.000Z,279.46
2023-03-14T14:45:33.000Z,279.46
2023-03-14T14:47:39.000Z,279.46
2023-03-14T14:50:30.000Z,279.46
2023-03-14T14:51:57.000Z,279.46
2023-03-14T14:54:03.000Z,279.52
2023-03-14T14:55:29.000Z,279.59
2023-03-14T14:57:36.000Z,279.52
2023-03-14T14:59:02.000Z,279.52
2023-03-14T15:01:08.000Z,279.46
2023-03-14T15:02:35.000Z,279.34
2023-03-14T15:04:41.000Z,279.34
2023-03-14T15:06:07.000Z,279.34
2023-03-14T15:08:13.000Z,279.4
2023-03-14T15:09:40.000Z,279.4
2023-03-14T15:11:46.000Z,279.34
2023-03-14T15:13:13.000Z,279.15
2023-03-14T15:15:19.000Z,278.96
2023-03-14T15:16:45.000Z,278.84
2023-03-14T15:18:51.000Z,278.84
2023-03-14T15:20:18.000Z,278.52
2023-03-14T15:22:24.000Z,278.46
2023-03-14T15:23:51.000Z,278.46
2023-03-14T15:25:57.000Z,278.34
2023-03-14T15:28:48.000Z,278.52
2023-03-14T15:30:15.000Z,278.52
2023-03-14T15:32:21.000Z,278.52
2023-03-14T15:33:47.000Z,278.46
2023-03-14T15:35:53.000Z,278.4
2023-03-14T15:37:20.000Z,278.46
2023-03-14T15:39:26.000Z,278.34
2023-03-14T15:40:53.000Z,278.4
2023-03-14T15:42:59.000Z,278.46
2023-03-14T15:44:25.000Z,278.46
2023-03-14T15:46:31.000Z,278.4
2023-03-14T15:47:58.000Z,278.46
2023-03-14T15:50:04.000Z,278.46
2023-03-14T15:51:31.000Z,278.52
2023-03-14T15:53:37.000Z,278.52
2023-03-14T15:55:03.000Z,278.59
2023-03-14T15:57:10.000Z,278.71
2023-03-14T15:58:36.000Z,278.77
2023-03-14T16:00:42.000Z,278.77
2023-03-14T16:02:09.000Z,278.77
2023-03-14T16:04:15.000Z,278.71
2023-03-14T16:07:06.000Z,278.71
2023-03-14T16:08:33.000Z,278.65
2023-03-14T16:10:39.000Z,278.59
2023-03-14T16:12:06.000Z,278.59
2023-03-14T16:14:12.000Z,278.59
2023-03-14T16:15:38.000Z,278.59
2023-03-14T16:17:44.000Z,278.59
2023-03-14T16:19:11.000Z,278.59
2023-03-14T16:21:17.000Z,278.59
2023-03-14T16:22:44.000Z,278.52
2023-03-14T16:24:50.000Z,278.52
2023-03-14T16:26:16.000Z,278.59
2023-03-14T16:28:23.000Z,278.59
2023-03-14T16:29:49.000Z,278.52
2023-03-14T16:31:55.000Z,278.52
2023-03-14T16:33:22.000Z,278.59
2023-03-14T16:35:28.000Z,278.52
2023-03-14T16:36:55.000Z,278.52
2023-03-14T16:39:01.000Z,278.4
2023-03-14T16:40:27.000Z,278.4
2023-03-14T16:42:34.000Z,278.4
2023-03-14T16:45:28.000Z,278.4
2023-03-14T16:46:54.000Z,278.46
2023-03-14T16:49:00.000Z,278.4
2023-03-14T16:50:27.000Z,278.4
2023-03-14T16:52:33.000Z,278.27
2023-03-14T16:53:59.000Z,278.21
2023-03-14T16:56:05.000Z,278.21
2023-03-14T16:57:32.000Z,278.21
2023-03-14T16:59:38.000Z,278.27
2023-03-14T17:01:05.000Z,278.21
2023-03-14T17:03:11.000Z,278.15
2023-03-14T17:04:37.000Z,278.09
2023-03-14T17:06:43.000Z,277.84
2023-03-14T17:08:10.000Z,277.71
2023-03-14T17:10:16.000Z,277.52
2023-03-14T17:11:43.000Z,277.71
2023-03-14T17:13:49.000Z,277.46
2023-03-14T17:15:15.000Z,277.34
2023-03-14T17:17:22.000Z,277.21
2023-03-14T17:18:48.000Z,277.27
2023-03-14T17:20:54.000Z,277.27
2023-03-14T17:23:45.000Z,277.02
2023-03-14T17:25:12.000Z,277.02
2023-03-14T17:27:18.000Z,276.96
2023-03-14T17:28:45.000Z,276.96
2023-03-14T17:30:51.000Z,276.96
2023-03-14T17:32:17.000Z,277.02
2023-03-14T17:34:23.000Z,277.15
2023-03-14T17:35:50.000Z,277.09
2023-03-14T17:37:56.000Z,277.02
2023-03-14T17:39:23.000Z,277.15
2023-03-14T17:41:29.000Z,277.09
2023-03-14T17:42:55.000Z,277.15
2023-03-14T17:45:01.000Z,277.09
2023-03-14T17:46:28.000Z,277.15
2023-03-14T17:48:34.000Z,277.09
2023-03-14T17:50:01.000Z,277.02
2023-03-14T17:52:07.000Z,277.09
2023-03-14T17:53:33.000Z,277.15
2023-03-14T17:55:39.000Z,277.15
2023-03-14T17:57:06.000Z,277.02
2023-03-14T17:59:12.000Z,277.09
2023-03-14T18:02:03.000Z,277.02
2023-03-14T18:03:30.000Z,277.02
2023-03-14T18:05:36.000Z,276.96
2023-03-14T18:07:03.000Z,276.96
2023-03-14T18:09:09.000Z,276.9
2023-03-14T18:10:35.000Z,276.96
2023-03-14T18:12:41.000Z,276.96
2023-03-14T18:14:08.000Z,277.02
2023-03-14T18:16:14.000Z,276.96
2023-03-14T18:17:41.000Z,277.02
2023-03-14T18:19:47.000Z,277.02
2023-03-14T18:21:13.000Z,277.02
2023-03-14T18:23:19.000Z,277.09
2023-03-14T18:24:46.000Z,277.15
2023-03-14T18:26:52.000Z,277.15
2023-03-14T18:28:19.000Z,277.15
2023-03-14T18:30:25.000Z,277.09
2023-03-14T18:31:52.000Z,277.09
2023-03-14T18:33:58.000Z,277.15
2023-03-14T18:35:24.000Z,277.09
2023-03-14T18:37:30.000Z,277.15
2023-03-14T18:40:21.000Z,277.09
2023-03-14T18:41:48.000Z,277.09
2023-03-14T18:43:54.000Z,277.09
2023-03-14T18:45:20.000Z,277.09
2023-03-14T18:47:26.000Z,277.15
2023-03-14T18:48:53.000Z,277.09
2023-03-14T18:50:59.000Z,277.09
2023-03-14T18:52:25.000Z,277.09
2023-03-14T18:54:31.000Z,277.02
2023-03-14T18:55:58.000Z,277.02
2023-03-14T18:58:04.000Z,277.02
2023-03-14T18:59:31.000Z,277.09
2023-03-14T19:01:37.000Z,276.96
2023-03-14T19:03:03.000Z,277.02
2023-03-14T19:05:10.000Z,276.96
2023-03-14T19:06:36.000Z,276.9
2023-03-14T19:08:42.000Z,277.02
2023-03-14T19:10:09.000Z,277.09
2023-03-14T19:12:15.000Z,277.09
2023-03-14T19:13:41.000Z,277.09
2023-03-14T19:15:47.000Z,277.09
2023-03-14T19:18:39.000Z,277.02
2023-03-14T19:20:05.000Z,277.09
2023-03-14T19:22:11.000Z,277.09
2023-03-14T19:23:38.000Z,277.09
2023-03-14T19:25:44.000Z,277.21
2023-03-14T19:27:10.000Z,277.21
2023-03-14T19:29:16.000Z,277.15
2023-03-14T19:30:43.000Z,277.15
2023-03-14T19:32:49.000Z,277.09
2023-03-14T19:34:16.000Z,277.02
2023-03-14T19:36:22.000Z,277.09
2023-03-14T19:37:48.000Z,277.09
2023-03-14T19:39:55.000Z,277.09
2023-03-14T19:41:21.000Z,277.09
2023-03-14T19:43:27.000Z,277.09
2023-03-14T19:44:54.000Z,277.09
2023-03-14T19:47:00.000Z,277.02
2023-03-14T19:48:26.000Z,277.09
2023-03-14T19:50:33.000Z,276.9
2023-03-14T19:51:59.000Z,276.96
2023-03-14T19:54:05.000Z,276.9
2023-03-14T19:56:57.000Z,276.9
2023-03-14T19:58:23.000Z,276.84
2023-03-14T20:00:29.000Z,276.84
2023-03-14T20:01:56.000Z,276.84
2023-03-14T20:04:02.000Z,276.84
2023-03-14T20:05:29.000Z,276.77
2023-03-14T20:07:35.000Z,276.84
2023-03-14T20:09:01.000Z,276.84
2023-03-14T20:11:07.000Z,276.77
2023-03-14T20:12:34.000Z,276.77
2023-03-14T20:14:40.000Z,276.77
2023-03-14T20:16:07.000Z,276.71
2023-03-14T20:18:13.000Z,276.65
2023-03-14T20:19:39.000Z,276.59
2023-03-14T20:21:45.000Z,276.59
2023-03-14T20:23:12.000Z,276.59
2023-03-14T20:25:18.000Z,276.65
2023-03-14T20:26:44.000Z,276.65
2023-03-14T20:28:50.000Z,276.65
2023-03-14T20:30:17.000Z,276.59
2023-03-14T20:32:23.000Z,276.59
2023-03-14T20:35:15.000Z,276.52
2023-03-14T20:36:41.000Z,276.59
2023-03-14T20:38:47.000Z,276.52
2023-03-14T20:40:14.000Z,276.59
2023-03-14T20:42:20.000Z,276.52
2023-03-14T20:43:46.000Z,276.59
2023-03-14T20:45:53.000Z,276.59
2023-03-14T20:47:19.000Z,276.52
2023-03-14T20:49:25.000Z,276.52
2023-03-14T20:50:52.000Z,276.52
2023-03-14T20:52:58.000Z,276.52
2023-03-14T20:54:25.000Z,276.52
2023-03-14T20:56:31.000Z,276.59
2023-03-14T20:57:57.000Z,276.59
2023-03-14T21:00:03.000Z,276.59
2023-03-14T21:01:30.000Z,276.65
2023-03-14T21:03:36.000Z,276.59
2023-03-14T21:05:02.000Z,276.59
2023-03-14T21:07:09.000Z,276.59
2023-03-14T21:08:35.000Z,276.59
2023-03-14T21:10:42.000Z,276.46
2023-03-14T21:13:33.000Z,276.52
2023-03-14T21:14:59.000Z,276.46
2023-03-14T21:17:05.000Z,276.46
2023-03-14T21:18:32.000Z,276.4
2023-03-14T21:20:38.000Z,276.4
2023-03-14T21:22:04.000Z,276.4
2023-03-14T21:24:11.000Z,276.4
2023-03-14T21:25:37.000Z,276.34
2023-03-14T21:27:47.000Z,276.34
2023-03-14T21:29:13.000Z,276.34
2023-03-14T21:31:19.000Z,276.34
2023-03-14T21:32:46.000Z,276.34
2023-03-14T21:34:52.000Z,276.34
2023-03-14T21:36:18.000Z,276.34
2023-03-14T21:38:25.000Z,276.27
2023-03-14T21:39:51.000Z,276.27
2023-03-14T21:41:57.000Z,276.15
2023-03-14T21:43:24.000Z,276.15
2023-03-14T21:45:30.000Z,276.21
2023-03-14T21:46:56.000Z,276.21
2023-03-14T21:49:02.000Z,276.09
2023-03-14T21:51:53.000Z,276.09
2023-03-14T21:53:20.000Z,276.09
2023-03-14T21:55:26.000Z,276.09
2023-03-14T21:56:53.000Z,276.15
2023-03-14T21:58:59.000Z,276.09
2023-03-14T22:00:25.000Z,276.09
2023-03-14T22:02:32.000Z,276.09
2023-03-14T22:03:58.000Z,276.02
2023-03-14T22:06:04.000Z,275.96
2023-03-14T22:07:31.000Z,276.02
2023-03-14T22:09:37.000Z,276.09
2023-03-14T22:11:04.000Z,276.09
2023-03-14T22:13:10.000Z,276.02
2023-03-14T22:14:36.000Z,276.02
2023-03-14T22:16:42.000Z,275.96
2023-03-14T22:18:09.000Z,275.9
2023-03-14T22:20:15.000Z,275.9
2023-03-14T22:21:42.000Z,275.84
2023-03-14T22:23:48.000Z,275.9
2023-03-14T22:25:14.000Z,275.9
2023-03-14T22:27:20.000Z,275.84
2023-03-14T22:30:11.000Z,275.9
2023-03-14T22:31:38.000Z,275.9
2023-03-14T22:33:44.000Z,275.84
2023-03-14T22:35:11.000Z,275.84
2023-03-14T22:37:17.000Z,275.77
2023-03-14T22:38:44.000Z,275.84
2023-03-14T22:40:50.000Z,275.77
2023-03-14T22:42:16.000Z,275.84
2023-03-14T22:44:22.000Z,275.84
2023-03-14T22:45:49.000Z,275.84
2023-03-14T22:47:55.000Z,275.84
2023-03-14T22:49:22.000Z,275.77
2023-03-14T22:51:28.000Z,275.77